createdAt,value
2022-08-09T00:04:00.261Z,18.34
2022-08-09T00:09:05.474Z,18.42
2022-08-09T00:14:08.267Z,18.24
2022-08-09T00:19:11.149Z,18.23
2022-08-09T00:24:14.994Z,18.13
2022-08-09T00:29:39.175Z,18.07
2022-08-09T00:34:37.898Z,18.08
2022-08-09T00:40:12.196Z,18.04
2022-08-09T00:45:03.742Z,17.98
2022-08-09T00:50:17.594Z,17.97
2022-08-09T00:55:32.705Z,17.77
2022-08-09T01:00:43.283Z,17.78
2022-08-09T01:05:54.543Z,17.75
2022-08-09T01:11:17.765Z,17.70
2022-08-09T01:16:24.410Z,17.72
2022-08-09T01:21:51.225Z,17.74
2022-08-09T01:27:14.604Z,17.61
2022-08-09T01:32:32.675Z,17.43
2022-08-09T01:38:05.993Z,17.37
2022-08-09T01:43:00.417Z,17.45
2022-08-09T01:48:05.888Z,17.50
2022-08-09T01:53:19.504Z,17.29
2022-08-09T01:58:23.989Z,17.31
2022-08-09T02:03:29.304Z,17.29
2022-08-09T02:08:41.309Z,17.21
2022-08-09T02:14:02.152Z,17.35
2022-08-09T02:19:09.074Z,17.36
2022-08-09T02:24:26.212Z,17.27
2022-08-09T02:29:33.674Z,17.26
2022-08-09T02:34:40.521Z,17.31
2022-08-09T02:40:01.829Z,17.28
2022-08-09T02:45:15.109Z,17.20
2022-08-09T02:50:26.898Z,17.10
2022-08-09T02:55:46.086Z,17.02
2022-08-09T03:00:58.093Z,16.92
2022-08-09T03:06:02.648Z,16.98
2022-08-09T03:11:06.731Z,17.06
2022-08-09T03:16:13.457Z,17.04
2022-08-09T03:21:17.003Z,17.01
2022-08-09T03:26:20.467Z,16.90
2022-08-09T03:31:33.093Z,16.81
2022-08-09T03:36:48.081Z,16.92
2022-08-09T03:42:06.441Z,16.85
2022-08-09T03:47:08.523Z,16.81
2022-08-09T03:52:11.463Z,16.80
2022-08-09T03:57:20.638Z,16.60
2022-08-09T04:02:28.482Z,16.59
2022-08-09T04:07:33.662Z,16.56
2022-08-09T04:12:53.912Z,16.56
2022-08-09T04:17:57.806Z,16.54
2022-08-09T04:22:59.795Z,16.43
2022-08-09T04:28:03.525Z,16.39
2022-08-09T04:33:05.248Z,16.48
2022-08-09T04:38:09.327Z,16.38
2022-08-09T04:43:10.752Z,16.37
2022-08-09T04:48:15.244Z,16.30
2022-08-09T04:53:16.719Z,16.42
2022-08-09T04:58:18.153Z,16.50
2022-08-09T05:03:40.996Z,16.52
2022-08-09T05:08:43.738Z,16.52
2022-08-09T05:13:45.265Z,16.65
2022-08-09T05:18:58.730Z,16.75
2022-08-09T05:24:03.755Z,16.76
2022-08-09T05:29:06.476Z,16.87
2022-08-09T05:34:07.993Z,16.96
2022-08-09T05:39:28.435Z,17.02
2022-08-09T05:44:32.711Z,17.11
2022-08-09T05:50:30.508Z,17.23
2022-08-09T05:54:57.519Z,17.30
2022-08-09T06:00:07.821Z,17.49
2022-08-09T06:05:10.925Z,17.59
2022-08-09T06:10:15.846Z,17.86
2022-08-09T06:15:19.443Z,17.82
2022-08-09T06:20:21.347Z,18.37
2022-08-09T06:25:23.568Z,18.68
2022-08-09T06:30:25.176Z,18.79
2022-08-09T06:35:35.794Z,19.00
2022-08-09T06:40:49.572Z,19.34
2022-08-09T06:46:05.930Z,19.38
2022-08-09T06:51:12.785Z,19.76
2022-08-09T06:56:16.396Z,20.17
2022-08-09T07:01:19.524Z,20.40
2022-08-09T07:06:25.613Z,20.77
2022-08-09T07:11:45.671Z,20.74
2022-08-09T07:16:57.663Z,21.08
2022-08-09T07:22:00.287Z,21.00
2022-08-09T07:27:03.687Z,21.03
2022-08-09T07:32:12.689Z,21.35
2022-08-09T07:37:15.936Z,21.60
2022-08-09T07:42:17.852Z,21.66
2022-08-09T07:47:19.439Z,21.80
2022-08-09T07:52:22.617Z,22.07
2022-08-09T07:57:33.966Z,22.12
2022-08-09T08:02:42.626Z,21.88
2022-08-09T08:08:43.123Z,22.19
2022-08-09T08:13:05.845Z,22.31
2022-08-09T08:18:11.874Z,22.42
2022-08-09T08:23:17.780Z,22.92
2022-08-09T08:28:26.236Z,22.90
2022-08-09T08:33:52.121Z,22.99
2022-08-09T08:38:54.679Z,22.59
2022-08-09T08:44:03.558Z,23.22
2022-08-09T08:49:07.400Z,23.47
2022-08-09T08:54:20.107Z,23.59
2022-08-09T08:59:22.907Z,23.69
2022-08-09T09:04:31.228Z,23.70
2022-08-09T09:09:58.653Z,23.69
2022-08-09T09:15:00.931Z,24.22
2022-08-09T09:20:06.347Z,23.93
2022-08-09T09:26:02.377Z,24.38
2022-08-09T09:30:47.274Z,24.39
2022-08-09T09:36:01.564Z,24.38
2022-08-09T09:41:05.679Z,24.20
2022-08-09T09:51:38.222Z,24.30
2022-08-09T09:58:00.157Z,24.47
2022-08-09T10:02:06.470Z,24.43
2022-08-09T10:08:10.665Z,24.20
2022-08-09T10:13:03.127Z,24.23
2022-08-09T10:18:12.403Z,24.39
2022-08-09T10:23:20.075Z,24.32
2022-08-09T10:28:23.534Z,24.25
2022-08-09T10:34:05.149Z,24.38
2022-08-09T10:38:56.442Z,24.20
2022-08-09T10:44:02.313Z,24.30
2022-08-09T10:49:21.139Z,24.37
2022-08-09T10:54:24.745Z,24.40
2022-08-09T10:59:31.150Z,24.43
2022-08-09T11:04:34.276Z,24.42
2022-08-09T11:09:45.224Z,24.50
2022-08-09T11:14:54.829Z,24.51
2022-08-09T11:20:10.127Z,24.62
2022-08-09T11:25:14.726Z,24.74
2022-08-09T11:30:33.237Z,24.67
2022-08-09T11:35:50.001Z,24.69
2022-08-09T11:40:54.938Z,24.66
2022-08-09T11:46:01.487Z,24.67
2022-08-09T11:51:21.304Z,25.00
2022-08-09T11:56:34.349Z,24.97
2022-08-09T12:02:15.904Z,24.85
2022-08-09T12:07:07.675Z,24.88
2022-08-09T12:12:20.309Z,24.89
2022-08-09T12:17:42.833Z,24.99
2022-08-09T12:22:47.422Z,25.09
2022-08-09T12:29:11.260Z,24.98
2022-08-09T12:33:51.185Z,25.27
2022-08-09T12:38:55.279Z,25.33
2022-08-09T12:44:06.355Z,25.09
2022-08-09T12:49:09.301Z,25.29
2022-08-09T12:54:10.819Z,25.29
2022-08-09T12:59:18.636Z,25.46
2022-08-09T13:04:36.867Z,25.40
2022-08-09T13:09:40.935Z,25.42
2022-08-09T13:14:51.537Z,25.69
2022-08-09T13:20:09.040Z,25.43
2022-08-09T13:25:14.703Z,25.69
2022-08-09T13:30:49.287Z,25.75
2022-08-09T13:36:38.222Z,25.79
2022-08-09T13:41:52.158Z,25.91
2022-08-09T13:47:15.979Z,25.80
2022-08-09T13:51:58.864Z,25.91
2022-08-09T13:57:02.667Z,25.81
2022-08-09T14:02:08.389Z,26.12
2022-08-09T14:07:11.529Z,25.82
2022-08-09T14:12:15.693Z,25.88
2022-08-09T14:17:17.356Z,25.97
2022-08-09T14:22:24.636Z,25.93
2022-08-09T14:27:26.661Z,25.94
2022-08-09T14:32:28.611Z,26.16
2022-08-09T14:38:01.554Z,25.98
2022-08-09T14:42:53.918Z,25.93
2022-08-09T14:47:58.495Z,26.16
2022-08-09T14:53:02.061Z,26.13
2022-08-09T14:58:05.097Z,26.45
2022-08-09T15:03:08.916Z,26.45
2022-08-09T15:08:12.063Z,26.52
2022-08-09T15:13:18.198Z,26.26
2022-08-09T15:18:19.655Z,26.36
2022-08-09T15:24:01.338Z,26.51
2022-08-09T15:28:44.927Z,26.30
2022-08-09T15:34:31.774Z,26.30
2022-08-09T15:39:20.395Z,26.39
2022-08-09T15:44:23.066Z,26.37
2022-08-09T15:49:24.618Z,26.32
2022-08-09T15:54:46.427Z,26.43
2022-08-09T15:59:51.887Z,26.45
2022-08-09T16:04:53.463Z,26.67
2022-08-09T16:10:04.788Z,26.49
2022-08-09T16:16:10.350Z,26.34
2022-08-09T16:20:30.489Z,26.48
2022-08-09T16:25:39.651Z,26.52
2022-08-09T16:30:44.742Z,26.46
2022-08-09T16:35:58.422Z,26.29
2022-08-09T16:41:03.921Z,26.46
2022-08-09T16:46:06.117Z,26.45
2022-08-09T16:51:14.291Z,26.22
2022-08-09T16:56:17.025Z,26.36
2022-08-09T17:01:24.637Z,26.36
2022-08-09T17:06:28.942Z,26.32
2022-08-09T17:11:40.348Z,26.09
2022-08-09T17:16:42.872Z,26.24
2022-08-09T17:21:46.580Z,26.15
2022-08-09T17:26:53.231Z,26.20
2022-08-09T17:31:55.386Z,26.08
2022-08-09T17:37:00.249Z,26.16
2022-08-09T17:42:04.251Z,26.06
2022-08-09T17:47:05.943Z,26.00
2022-08-09T17:52:22.258Z,25.97
2022-08-09T17:58:03.221Z,25.84
2022-08-09T18:02:58.575Z,25.65
2022-08-09T18:08:00.317Z,25.79
2022-08-09T18:13:43.567Z,25.76
2022-08-09T18:18:32.861Z,25.75
2022-08-09T18:24:12.000Z,25.65
2022-08-09T18:30:35.792Z,25.60
2022-08-09T18:34:19.028Z,25.48
2022-08-09T18:39:25.764Z,25.40
2022-08-09T18:44:34.367Z,25.34
2022-08-09T18:49:41.624Z,25.31
2022-08-09T18:54:52.470Z,25.23
2022-08-09T19:00:01.492Z,25.04
2022-08-09T19:05:20.629Z,24.93
2022-08-09T19:10:27.970Z,24.87
2022-08-09T19:15:29.545Z,24.74
2022-08-09T19:20:34.349Z,24.63
2022-08-09T19:26:02.235Z,24.52
2022-08-09T19:31:03.000Z,24.44
2022-08-09T19:36:11.784Z,24.39
2022-08-09T19:41:33.407Z,24.28
2022-08-09T19:46:50.851Z,24.14
2022-08-09T19:51:57.018Z,24.02
2022-08-09T19:56:59.014Z,23.90
2022-08-09T20:02:04.717Z,23.77
2022-08-09T20:07:21.398Z,23.78
2022-08-09T20:12:37.531Z,23.74
2022-08-09T20:17:48.631Z,23.58
2022-08-09T20:22:56.738Z,23.48
2022-08-09T20:27:58.284Z,23.42
2022-08-09T20:33:01.912Z,23.36
2022-08-09T20:38:22.354Z,23.27
2022-08-09T20:43:25.389Z,23.16
2022-08-09T20:48:28.840Z,23.13
2022-08-09T20:53:36.588Z,23.06
2022-08-09T20:58:39.831Z,22.89
2022-08-09T21:04:08.249Z,22.83
2022-08-09T21:09:11.813Z,22.89
2022-08-09T21:14:16.789Z,22.73
2022-08-09T21:20:17.973Z,22.66
2022-08-09T21:25:00.835Z,22.61
2022-08-09T21:30:02.752Z,22.45
2022-08-09T21:35:04.437Z,22.30
2022-08-09T21:40:10.692Z,22.24
2022-08-09T21:45:17.400Z,22.19
2022-08-09T21:50:22.992Z,22.14
2022-08-09T21:55:37.436Z,22.08
2022-08-09T22:00:39.520Z,22.01
2022-08-09T22:05:43.228Z,22.00
2022-08-09T22:11:50.437Z,21.89
2022-08-09T22:16:11.674Z,21.85
2022-08-09T22:21:22.444Z,21.64
2022-08-09T22:26:35.036Z,21.75
2022-08-09T22:31:50.122Z,21.56
2022-08-09T22:36:59.176Z,21.48
2022-08-09T22:42:00.646Z,21.33
2022-08-09T22:48:11.230Z,21.37
2022-08-09T22:52:23.621Z,21.13
2022-08-09T22:57:31.531Z,21.27
2022-08-09T23:02:37.245Z,21.21
2022-08-09T23:08:22.493Z,21.11
2022-08-09T23:13:20.763Z,21.01
2022-08-09T23:18:22.247Z,20.90
2022-08-09T23:23:23.706Z,20.84
2022-08-09T23:28:25.150Z,20.99
2022-08-09T23:33:26.806Z,20.85
2022-08-09T23:38:28.218Z,20.85
2022-08-09T23:43:29.695Z,20.73
2022-08-09T23:48:31.153Z,20.63
2022-08-09T23:53:37.547Z,20.73
2022-08-09T23:58:39.954Z,20.70
